Flight Track Log - Related Links

Times and Time Zones

All times are in EDT time to prevent confusion due to time zone crossing. See the N131PT flight status page for this flight to view local times or setup timezone preferences in your user account.

Time Position Orientation Groundspeed Altitude Reporting Facility
EDT Latitude Longitude Course Direction KTS MPH feet Rate Location/Type
Sat 07:36:21 AM 39.0000 -76.3167 90° East 144 166 2,000  Level Potomac TRACON
Sat 07:37:21 AM 39.0000 -76.2667 90° East 156 180 3,400 1,350 Climbing Potomac TRACON
Sat 07:38:21 AM 39.0000 -76.2167 90° East 147 169 4,700 1,350 Climbing Potomac TRACON
Sat 07:39:21 AM 39.0333 -76.1667 49° Northeast 136 157 6,100 1,350 Climbing Potomac TRACON
Sat 07:40:21 AM 39.0667 -76.1833 339° North 138 159 7,400 1,250 Climbing Potomac TRACON
Sat 07:41:21 AM 39.1000 -76.2167 322° Northwest 142 163 8,600 1,200 Climbing Potomac TRACON
Sat 07:42:21 AM 39.1333 -76.2500 322° Northwest 145 167 9,800 1,150 Climbing Potomac TRACON
Sat 07:43:21 AM 39.1500 -76.3000 293° West 150 173 10,900 1,150 Climbing Potomac TRACON
Sat 07:44:21 AM 39.1667 -76.3500 293° West 149 171 12,100 1,150 Climbing Potomac TRACON
Sat 07:45:21 AM 39.1667 -76.4000 270° West 147 169 13,200 950 Climbing Potomac TRACON
Sat 07:46:21 AM 39.1833 -76.4500 293° West 156 180 14,000 400 Climbing Potomac TRACON
Sat 07:47:21 AM 39.2000 -76.5167 288° West 177 204 14,000  Level Potomac TRACON
Sat 07:48:21 AM 39.2167 -76.5667 293° West 181 208 14,000  Level Potomac TRACON
Sat 07:49:21 AM 39.2333 -76.6333 288° West 202 232 14,000  Level Potomac TRACON
Sat 07:50:21 AM 39.2500 -76.7000 288° West 211 243 14,000  Level Potomac TRACON
Sat 07:51:21 AM 39.2667 -76.7667 288° West 182 209 14,000 200 Level Potomac TRACON
Sat 07:52:21 AM 39.2833 -76.8167 293° West 172 198 14,400 700 Climbing Potomac TRACON
Sat 07:53:21 AM 39.2833 -76.8833 270° West 173 199 15,400 623 Climbing Potomac TRACON
Sat 07:54:55 AM 39.3119 -76.9783 291° West 187 215 16,000 234 Climbing Washington Center
Sat 07:55:55 AM 39.3278 -77.0458 287° West 192 221 16,000  Level Washington Center
Sat 07:56:56 AM 39.3436 -77.1131 287° West 192 221 16,000  Level Washington Center
Sat 07:57:54 AM 39.3572 -77.1806 285° West 197 227 16,000  Level Washington Center
Sat 07:58:55 AM 39.3753 -77.2481 289° West 197 227 16,000  Level Washington Center
Sat 07:59:56 AM 39.3908 -77.3156 287° West 197 227 16,000  Level Washington Center
Sat 08:00:54 AM 39.4067 -77.3831 287° West 202 232 16,000 51 Level Washington Center
Sat 08:01:54 AM 39.4222 -77.4506 287° West 202 232 16,100 347 Climbing Washington Center
Sat 08:02:55 AM 39.4381 -77.5103 289° West 196 226 16,700 639 Climbing Washington Center
Sat 08:03:56 AM 39.4517 -77.5725 286° West 190 219 17,400 756 Climbing Washington Center
Sat 08:04:54 AM 39.4672 -77.6347 288° West 185 213 18,200 908 Climbing Washington Center
Sat 08:05:55 AM 39.4869 -77.6969 292° West 185 213 19,200 934 Climbing Washington Center
Sat 08:06:56 AM 39.5047 -77.7567 291° West 185 213 20,100 857 Climbing Washington Center
Sat 08:07:54 AM 39.5203 -77.8189 288° West 190 219 20,900 864 Climbing Washington Center
Sat 08:08:54 AM 39.5397 -77.8842 291° West 190 219 21,800 893 Climbing Washington Center
Sat 08:09:55 AM 39.5594 -77.9494 291° West 190 219 22,700 893 Climbing Washington Center
Sat 08:10:55 AM 39.5789 -78.0175 290° West 190 219 23,600 990 Climbing Washington Center
Sat 08:13:15 AM 39.6244 -78.1656 292° West 188 216 26,000 960 Climbing Cleveland Center
Sat 08:14:15 AM 39.6425 -78.2322 289° West 188 216 26,800 50 Climbing Cleveland Center
Sat 08:15:15 AM 39.6631 -78.3125 288° West 207 238 26,100 -400 Descending Cleveland Center
Sat 08:16:15 AM 39.6875 -78.3953 291° West 233 268 26,000 -50 Descending Cleveland Center
Sat 08:17:15 AM 39.7100 -78.4756 290° West 238 274 26,000  Level Cleveland Center
Sat 08:18:15 AM 39.7322 -78.5558 290° West 238 274 26,000  Level Cleveland Center
Sat 08:19:15 AM 39.7567 -78.6361 292° West 243 280 26,000  Level Cleveland Center
Sat 08:20:15 AM 39.7767 -78.7192 287° West 243 280 26,000  Level Cleveland Center
Sat 08:21:15 AM 39.7989 -78.7997 290° West 235 270 26,000  Level Cleveland Center
Sat 08:22:15 AM 39.8208 -78.8803 290° West 235 270 26,000  Level Cleveland Center
Sat 08:23:15 AM 39.8431 -78.9636 289° West 241 277 26,000  Level Cleveland Center
Sat 08:24:15 AM 39.8669 -79.0386 293° West 248 285 26,000  Level Cleveland Center
Sat 08:25:15 AM 39.8911 -79.1219 291° West 248 285 26,000  Level Cleveland Center
Sat 08:26:15 AM 39.9128 -79.2056 289° West 248 285 26,000  Level Cleveland Center
Sat 08:27:15 AM 39.9389 -79.2969 290° West 248 285 26,000  Level Cleveland Center
Sat 08:28:15 AM 39.9608 -79.3806 289° West 248 285 26,000  Level Cleveland Center
Sat 08:29:15 AM 39.9847 -79.4667 290° West 248 285 26,000  Level Cleveland Center
Sat 08:30:15 AM 40.0061 -79.5506 288° West 248 285 26,000  Level Cleveland Center
Sat 08:31:15 AM 40.0278 -79.6342 289° West 248 285 26,000  Level Cleveland Center
Sat 08:32:15 AM 40.0514 -79.7206 290° West 248 285 26,000  Level Cleveland Center
Sat 08:33:15 AM 40.0750 -79.8044 290° West 248 285 26,000  Level Cleveland Center
Sat 08:34:15 AM 40.0964 -79.8883 288° West 248 285 26,000  Level Cleveland Center
Sat 08:35:15 AM 40.1178 -79.9722 288° West 248 285 26,000  Level Cleveland Center
Sat 08:36:15 AM 40.1411 -80.0561 290° West 243 280 26,000  Level Cleveland Center
Sat 08:37:15 AM 40.1622 -80.1403 288° West 248 285 26,000  Level Cleveland Center
Sat 08:38:15 AM 40.1856 -80.2244 290° West 248 285 26,000  Level Cleveland Center
Sat 08:39:15 AM 40.2086 -80.3111 289° West 248 285 26,000  Level Cleveland Center
Sat 08:40:15 AM 40.2297 -80.3956 288° West 243 280 26,000  Level Cleveland Center
Sat 08:41:15 AM 40.2528 -80.4825 289° West 248 285 26,000  Level Cleveland Center
Sat 08:42:15 AM 40.2756 -80.5614 291° West 248 285 26,000  Level Cleveland Center
Sat 08:43:15 AM 40.2964 -80.6483 287° West 248 285 26,000  Level Cleveland Center
Sat 08:44:15 AM 40.3172 -80.7328 288° West 248 285 26,000  Level Cleveland Center
Sat 08:45:15 AM 40.3400 -80.8172 290° West 248 285 26,000  Level Cleveland Center
Sat 08:46:15 AM 40.3606 -80.9044 287° West 248 285 26,000  Level Cleveland Center
Sat 08:47:15 AM 40.3833 -80.9892 289° West 248 285 26,000  Level Cleveland Center
Sat 08:48:15 AM 40.4039 -81.0739 288° West 248 285 26,000  Level Cleveland Center
Sat 08:49:15 AM 40.4242 -81.1586 287° West 248 285 26,000  Level Cleveland Center
Sat 08:50:15 AM 40.4467 -81.2433 289° West 248 285 26,000  Level Cleveland Center
Sat 08:51:15 AM 40.4669 -81.3281 287° West 248 285 26,000  Level Cleveland Center
Sat 08:52:15 AM 40.4872 -81.4211 286° West 248 285 26,000  Level Cleveland Center
Sat 08:53:15 AM 40.5094 -81.5061 289° West 248 285 26,000  Level Cleveland Center
Sat 08:54:15 AM 40.5297 -81.5911 287° West 248 285 26,000  Level Cleveland Center
Sat 08:55:15 AM 40.5517 -81.6761 289° West 248 285 26,000  Level Cleveland Center
Sat 08:56:15 AM 40.5678 -81.7531 285° West 248 285 26,000  Level Cleveland Center
Sat 08:57:15 AM 40.5897 -81.8381 289° West 248 285 26,000  Level Cleveland Center
Sat 08:58:14 AM 40.6111 -81.9231 288° West 246 283 26,000  Level Indianapolis Center
Sat 08:59:15 AM 40.6314 -82.0111 287° West 248 285 26,000  Level Cleveland Center
Sat 09:00:15 AM 40.6511 -82.0936 288° West 248 285 26,000  Level Cleveland Center
Sat 09:01:15 AM 40.6728 -82.1872 287° West 248 285 26,000  Level Cleveland Center
Sat 09:02:15 AM 40.6944 -82.2728 288° West 248 285 26,000  Level Cleveland Center
Sat 09:03:15 AM 40.7161 -82.3583 289° West 248 285 26,000  Level Cleveland Center
Sat 09:04:15 AM 40.7358 -82.4411 287° West 248 285 26,000  Level Cleveland Center
Sat 09:05:15 AM 40.7553 -82.5239 287° West 248 285 26,000  Level Cleveland Center
Sat 09:06:15 AM 40.7744 -82.6094 287° West 248 285 26,000  Level Cleveland Center
Sat 09:07:15 AM 40.7939 -82.6922 287° West 248 285 26,000  Level Cleveland Center
Sat 09:08:15 AM 40.8153 -82.7753 289° West 248 285 26,000  Level Cleveland Center
Sat 09:09:15 AM 40.8347 -82.8500 289° West 248 285 26,000  Level Cleveland Center
Sat 09:10:15 AM 40.8517 -82.9356 285° West 248 285 26,000  Level Cleveland Center
Sat 09:11:15 AM 40.8708 -83.0186 287° West 248 285 26,000  Level Cleveland Center
Sat 09:12:15 AM 40.8897 -83.1019 287° West 248 285 26,000  Level Cleveland Center
Sat 09:13:15 AM 40.9108 -83.1850 289° West 243 280 26,000  Level Cleveland Center
Sat 09:14:15 AM 40.9319 -83.2683 289° West 238 274 26,000  Level Cleveland Center
Sat 09:15:15 AM 40.9508 -83.3517 287° West 238 274 26,000  Level Cleveland Center
Sat 09:16:15 AM 40.9694 -83.4350 287° West 243 280 26,000  Level Cleveland Center
Sat 09:17:15 AM 40.9903 -83.5183 288° West 243 280 26,000  Level Cleveland Center
Sat 09:18:15 AM 41.0069 -83.6017 285° West 243 280 26,000  Level Cleveland Center
Sat 09:19:15 AM 41.0256 -83.6853 286° West 243 280 26,000  Level Cleveland Center
Sat 09:20:15 AM 41.0442 -83.7658 287° West 243 280 26,000  Level Cleveland Center
Sat 09:21:15 AM 41.0628 -83.8494 286° West 238 274 26,000  Level Cleveland Center
Sat 09:22:15 AM 41.0811 -83.9303 287° West 238 274 26,000  Level Cleveland Center
Sat 09:22:45 AM 41.0908 -83.9789 285° West 230 265 26,000  Level Indianapolis Center
Sat 09:23:47 AM 41.1089 -84.0603 286° West 229 264 26,000 -390 Level Indianapolis Center
Sat 09:24:48 AM 41.1272 -84.1458 286° West 237 273 25,200 -750 Descending Indianapolis Center
Sat 09:25:23 AM 41.1392 -84.1975 287° West 245 282 24,800 -625 Descending Chicago Center
Sat 09:26:24 AM 41.1581 -84.2856 286° West 248 285 24,200 -585 Descending Chicago Center
Sat 09:27:26 AM 41.1781 -84.3703 287° West 243 280 23,600 -585 Descending Chicago Center
Sat 09:28:27 AM 41.1969 -84.4561 286° West 242 278 23,000 -541 Descending Chicago Center
Sat 09:29:28 AM 41.2150 -84.5406 286° West 239 275 22,500 -439 Descending Chicago Center
Sat 09:30:30 AM 41.2328 -84.6242 286° West 235 270 22,100 -244 Descending Chicago Center
Sat 09:31:31 AM 41.2497 -84.7058 285° West 230 265 22,000 -49 Descending Chicago Center
Sat 09:32:32 AM 41.2664 -84.7836 286° West 222 255 22,000  Level Chicago Center
Sat 09:33:34 AM 41.2831 -84.8622 286° West 221 254 22,000 -98 Level Chicago Center
Sat 09:34:35 AM 41.3028 -84.9533 286° West 216 249 21,800 -585 Descending Chicago Center
Sat 09:35:37 AM 41.3194 -85.0333 286° West 223 257 20,800 -1,024 Descending Chicago Center
Sat 09:36:38 AM 41.3367 -85.1136 286° West 225 259 19,700 -976 Descending Chicago Center
Sat 09:37:40 AM 41.3528 -85.1919 285° West 222 255 18,800 -976 Descending Chicago Center
Sat 09:38:41 AM 41.3694 -85.2672 286° West 214 246 17,700 -976 Descending Chicago Center
Sat 09:39:43 AM 41.3836 -85.3444 284° West 215 247 16,800 -823 Descending Chicago Center
Sat 09:40:45 AM 41.4000 -85.4217 286° West 215 247 16,000 -390 Descending Chicago Center
Sat 09:41:46 AM 41.4161 -85.4950 286° West 209 241 16,000  Level Chicago Center
Sat 09:42:47 AM 41.4311 -85.5661 286° West 201 231 16,000  Level Chicago Center
Sat 09:43:49 AM 41.4453 -85.6367 285° West 196 226 16,000  Level Chicago Center
Sat 09:44:50 AM 41.4622 -85.7203 285° West 195 224 16,000  Level Chicago Center
Sat 09:45:51 AM 41.4767 -85.7911 285° West 197 227 16,000  Level Chicago Center
Sat 09:46:53 AM 41.4911 -85.8628 285° West 197 227 16,000  Level Chicago Center
Sat 09:47:54 AM 41.5053 -85.9328 285° West 199 229 16,000  Level Chicago Center
Sat 09:48:56 AM 41.5197 -86.0042 285° West 198 228 16,000  Level Chicago Center
Sat 09:49:58 AM 41.5239 -86.0767 274° West 203 234 16,000 -293 Level Chicago Center
Sat 09:50:59 AM 41.5239 -86.1533 270° West 207 238 15,400 -732 Descending Chicago Center
Sat 09:52:01 AM 41.5239 -86.2300 270° West 207 238 14,500 -1,220 Descending Chicago Center
Sat 09:53:02 AM 41.5236 -86.3042 270° West 203 234 12,900 -1,707 Descending Chicago Center
Sat 09:54:04 AM 41.5242 -86.3928 271° West 199 229 11,000 -1,463 Descending Chicago Center
Sat 09:55:05 AM 41.5225 -86.4644 268° West 195 224 9,900 -976 Descending Chicago Center
Sat 09:56:07 AM 41.5217 -86.5308 269° West 181 208 9,000 -439 Descending Chicago Center
Sat 09:57:08 AM 41.5214 -86.5978 270° West 180 207 9,000  Level Chicago Center
Sat 09:58:10 AM 41.5203 -86.6681 269° West 187 215 9,000 -49 Level Chicago Center
Sat 09:59:11 AM 41.5200 -86.7383 270° West 194 223 8,900 -390 Descending Chicago Center
Sat 10:00:13 AM 41.5197 -86.8247 270° West 196 226 8,200 -871 Descending Chicago Center
Sat 10:01:15 AM 41.5189 -86.8942 269° West 191 220 7,100 -976 Descending Chicago Center
Sat 10:02:16 AM 41.5186 -86.9667 270° West 193 222 6,200 -537 Descending Chicago Center
Sat 10:03:18 AM 41.5178 -87.0333 269° West 182 209 6,000 -146 Descending Chicago Center
Sat 10:04:19 AM 41.5175 -87.0925 270° West 164 189 5,900 -195 Descending Chicago Center
Sat 10:05:21 AM 41.5153 -87.1572 267° West 173 199 5,600 -390 Descending Chicago Center
Sat 10:06:22 AM 41.5158 -87.2389 271° West 183 211 5,100 -488 Descending Chicago Center
Sat 10:07:24 AM 41.5342 -87.2994 292° West 186 214 4,600 -435 Descending Chicago Center
Sat 10:08:26 AM 41.5589 -87.3544 301° West 178 205 4,200 -293 Descending Chicago Center
Sat 10:09:27 AM 41.5844 -87.4114 301° West 179 206 4,000 -98 Descending Chicago Center
Sat 10:10:29 AM 41.6103 -87.4683 301° West 180 207 4,000  Level Chicago Center
Sat 10:11:30 AM 41.6356 -87.5247 301° West 179 206 4,000  Level Chicago Center
Sat 10:12:32 AM 41.6614 -87.5806 302° West 179 206 4,000 -145 Level Chicago Center
Sat 10:13:34 AM 41.6989 -87.6322 314° West 167 192 3,700 -732 Descending Chicago Center
Sat 10:14:35 AM 41.7269 -87.6711 314° West 155 178 2,500 -1,024 Descending Chicago Center
Sat 10:15:37 AM 41.7536 -87.7086 314° West 148 170 1,600 -537 Descending Chicago Center
Sat 10:16:38 AM 41.7844 -87.7158 350° North 141 162 1,400 -244 Descending Chicago Center
Sat 10:17:40 AM 41.8092 -87.7492 315° West 139 160 1,100 -290 Descending Chicago Center
Sat 10:19:00 AM 41.7833 -87.7500 323° Northwest  Level FlightAware Approximate

Login

Don't have an account? Register now (free) for customized features, flight alerts, and more!